Time;durP1;ratioP1;P1;durP2;ratioP2;P2;SDS_P1;SDS_P2;PMS_P1;PMS_P2;Temp;Humidity;BMP_temperature;BMP_pressure;BME280_temperature;BME280_humidity;BME280_pressure;Samples;Min_cycle;Max_cycle;Signal;HPM_P1;HPM_P2
2023/04/16 00:00:34;;;;;;;3.33;1.98;;;8.00;99.90;;;;;;5074267;28;20052;-87
2023/04/16 00:03:00;;;;;;;4.18;3.40;;;8.10;99.90;;;;;;5075802;28;20162;-86
2023/04/16 00:05:26;;;;;;;4.13;3.72;;;9.20;99.90;;;;;;5063697;28;20033;-87
2023/04/16 00:07:52;;;;;;;3.72;2.65;;;8.20;99.90;;;;;;5073790;28;20052;-87
2023/04/16 00:10:17;;;;;;;8.02;3.95;;;8.50;99.90;;;;;;5073265;28;20057;-86
2023/04/16 00:12:46;;;;;;;3.13;1.98;;;8.10;99.90;;;;;;5072884;28;20041;-86
2023/04/16 00:15:12;;;;;;;1.85;1.75;;;9.10;99.90;;;;;;5087852;28;20036;-86
2023/04/16 00:17:37;;;;;;;1.08;1.00;;;7.80;99.90;;;;;;5075778;28;20056;-86
2023/04/16 00:20:03;;;;;;;1.58;1.38;;;8.10;99.90;;;;;;5074031;28;20040;-88
2023/04/16 00:22:29;;;;;;;2.35;1.42;;;8.00;99.90;;;;;;5060644;28;20407;-86
2023/04/16 00:24:55;;;;;;;4.85;2.72;;;8.00;99.90;;;;;;5048336;28;20391;-87
2023/04/16 00:27:21;;;;;;;6.93;3.53;;;8.00;99.90;;;;;;5073186;28;20503;-86
2023/04/16 00:29:47;;;;;;;7.72;2.70;;;7.90;99.90;;;;;;5073172;28;20128;-85
2023/04/16 00:32:12;;;;;;;3.63;2.80;;;7.90;99.90;;;;;;5073251;28;20033;-86
2023/04/16 00:34:38;;;;;;;2.80;2.30;;;7.80;99.90;;;;;;5073971;28;20043;-86
2023/04/16 00:37:04;;;;;;;8.88;3.92;;;7.80;99.90;;;;;;5060435;28;20095;-86
2023/04/16 00:39:30;;;;;;;1.40;0.98;;;7.90;99.90;;;;;;5079819;28;20048;-86
2023/04/16 00:41:55;;;;;;;2.17;1.92;;;7.90;99.90;;;;;;5088523;28;20032;-86
2023/04/16 00:44:21;;;;;;;2.22;2.03;;;7.80;99.90;;;;;;5086918;28;20042;-86
2023/04/16 00:46:47;;;;;;;6.05;3.05;;;8.80;99.90;;;;;;5085979;28;20044;-86
2023/04/16 00:49:13;;;;;;;4.03;2.67;;;7.80;99.90;;;;;;5089425;28;20630;-86
2023/04/16 00:51:40;;;;;;;1.65;1.55;;;7.80;99.90;;;;;;5080403;28;20522;-87
2023/04/16 00:54:05;;;;;;;5.45;2.75;;;7.80;99.90;;;;;;5058060;28;20072;-86
2023/04/16 00:56:35;;;;;;;4.18;2.88;;;7.80;99.90;;;;;;5057706;28;20040;-85
2023/04/16 00:59:01;;;;;;;2.10;1.85;;;7.70;99.90;;;;;;5074883;28;20134;-85
2023/04/16 01:01:27;;;;;;;4.50;3.28;;;8.40;99.90;;;;;;5076024;28;20041;-86
2023/04/16 01:03:54;;;;;;;2.88;2.30;;;7.80;99.90;;;;;;5065191;28;20114;-86
2023/04/16 01:06:20;;;;;;;16.83;3.15;;;8.50;99.90;;;;;;5066853;28;20051;-86
2023/04/16 01:08:47;;;;;;;25.30;3.22;;;8.60;99.90;;;;;;5073760;28;20059;-86
2023/04/16 01:11:14;;;;;;;2.22;2.03;;;7.80;99.90;;;;;;5087327;28;20071;-86
2023/04/16 01:13:40;;;;;;;6.18;2.15;;;7.80;99.90;;;;;;5085275;28;20064;-85
2023/04/16 01:16:08;;;;;;;2.65;1.95;;;7.70;99.90;;;;;;5086691;28;20073;-86
2023/04/16 01:18:34;;;;;;;12.80;3.25;;;8.10;99.90;;;;;;5087246;28;20532;-85
2023/04/16 01:21:00;;;;;;;4.32;3.35;;;7.80;99.90;;;;;;5086704;28;20040;-86
2023/04/16 01:23:26;;;;;;;2.20;1.60;;;7.80;99.90;;;;;;5068956;28;20045;-86
2023/04/16 01:25:51;;;;;;;1.42;1.33;;;7.70;99.90;;;;;;5082371;28;20059;-85
2023/04/16 01:28:17;;;;;;;3.90;2.53;;;7.70;99.90;;;;;;5083095;28;20047;-85
2023/04/16 01:30:43;;;;;;;5.15;2.90;;;7.70;99.90;;;;;;5082056;28;20044;-85
2023/04/16 01:33:13;;;;;;;2.33;1.98;;;7.70;99.90;;;;;;5078078;28;20051;-86
2023/04/16 01:35:40;;;;;;;3.45;2.83;;;7.70;99.90;;;;;;5074388;28;20052;-86
2023/04/16 01:38:07;;;;;;;1.98;1.83;;;7.80;99.90;;;;;;5072631;28;20084;-87
2023/04/16 01:40:37;;;;;;;4.80;2.53;;;8.00;99.90;;;;;;5057426;28;20408;-86
2023/04/16 01:43:03;;;;;;;2.67;2.33;;;7.70;99.90;;;;;;5065154;28;20044;-86
2023/04/16 01:45:31;;;;;;;4.93;2.70;;;9.00;99.90;;;;;;5078249;28;20810;-86
2023/04/16 01:47:57;;;;;;;4.15;2.20;;;7.70;99.90;;;;;;5064657;28;20060;-87
2023/04/16 01:50:22;;;;;;;5.15;2.90;;;7.70;99.90;;;;;;5057360;28;20049;-87
2023/04/16 01:52:48;;;;;;;4.63;1.77;;;7.70;99.90;;;;;;5057201;28;20045;-87
2023/04/16 01:55:14;;;;;;;2.20;2.03;;;7.70;99.90;;;;;;5057351;28;20056;-85
2023/04/16 01:57:40;;;;;;;4.13;3.35;;;7.60;99.90;;;;;;5056209;28;20053;-86
2023/04/16 02:00:07;;;;;;;30.25;2.38;;;7.70;99.90;;;;;;5055920;28;20045;-86
2023/04/16 02:02:34;;;;;;;5.45;3.25;;;7.60;99.90;;;;;;5056924;28;20053;-86
2023/04/16 02:05:03;;;;;;;3.83;2.10;;;7.60;99.90;;;;;;5056649;28;20052;-86
2023/04/16 02:07:30;;;;;;;9.02;3.35;;;7.60;99.90;;;;;;5057029;28;20051;-85
2023/04/16 02:09:57;;;;;;;2.45;1.98;;;8.10;99.90;;;;;;5038913;28;20608;-86
2023/04/16 02:12:22;;;;;;;3.88;2.92;;;7.60;99.90;;;;;;5055951;28;20548;-86
2023/04/16 02:14:48;;;;;;;3.33;2.17;;;8.00;99.90;;;;;;5075108;28;20033;-86
2023/04/16 02:17:14;;;;;;;3.03;2.28;;;7.60;99.90;;;;;;5076842;28;20452;-86
2023/04/16 02:19:40;;;;;;;4.28;2.53;;;7.60;99.90;;;;;;5076170;28;20120;-85
2023/04/16 02:22:06;;;;;;;8.40;3.17;;;7.50;99.90;;;;;;5077186;28;20056;-86
2023/04/16 02:24:32;;;;;;;4.70;2.58;;;7.60;99.90;;;;;;5077066;28;20047;-86
2023/04/16 02:26:58;;;;;;;4.22;2.40;;;7.60;99.90;;;;;;5072096;28;20037;-86
2023/04/16 02:29:23;;;;;;;1.85;1.75;;;7.60;99.90;;;;;;5055728;28;20060;-86
2023/04/16 02:31:49;;;;;;;2.78;2.58;;;7.60;99.90;;;;;;5057325;28;20040;-86
2023/04/16 02:34:15;;;;;;;2.08;1.40;;;7.50;99.90;;;;;;5069896;28;20068;-86
2023/04/16 02:36:40;;;;;;;1.80;1.42;;;7.50;99.90;;;;;;5076166;28;20128;-86
2023/04/16 02:39:06;;;;;;;1.70;1.60;;;8.20;99.90;;;;;;5058547;28;20037;-84
2023/04/16 02:41:32;;;;;;;1.35;1.20;;;7.50;99.90;;;;;;5077524;28;20117;-87
2023/04/16 02:43:58;;;;;;;2.30;2.10;;;8.80;99.90;;;;;;5047293;28;20414;-87
2023/04/16 02:46:24;;;;;;;2.08;1.88;;;7.50;99.90;;;;;;5063986;28;20025;-86
2023/04/16 02:48:49;;;;;;;2.08;1.38;;;7.50;99.90;;;;;;5075220;28;20043;-86
2023/04/16 02:51:15;;;;;;;2.80;2.60;;;8.50;99.90;;;;;;5093051;28;20028;-86
2023/04/16 02:53:44;;;;;;;2.50;2.28;;;7.50;99.90;;;;;;5076453;28;20045;-85
2023/04/16 02:56:11;;;;;;;0.73;0.50;;;7.50;99.90;;;;;;5078409;28;20045;-86
2023/04/16 02:58:36;;;;;;;2.53;2.33;;;7.50;99.90;;;;;;5058195;28;20037;-86
2023/04/16 03:01:02;;;;;;;1.33;1.25;;;7.50;99.90;;;;;;5057404;28;20047;-85
2023/04/16 03:03:28;;;;;;;4.50;2.65;;;7.50;99.90;;;;;;5039666;28;20407;-84
2023/04/16 03:05:54;;;;;;;1.40;1.30;;;7.50;99.90;;;;;;5056357;28;20048;-86
2023/04/16 03:08:19;;;;;;;2.28;2.08;;;7.50;99.90;;;;;;5073348;28;20595;-85
2023/04/16 03:10:48;;;;;;;8.25;3.33;;;7.50;99.90;;;;;;5074729;28;20048;-86
2023/04/16 03:13:14;;;;;;;4.35;2.55;;;7.60;99.90;;;;;;5074193;28;20181;-86
2023/04/16 03:15:40;;;;;;;3.75;2.70;;;7.60;99.90;;;;;;5073921;28;20565;-86
2023/04/16 03:18:05;;;;;;;2.28;1.52;;;7.60;99.90;;;;;;5059788;28;20590;-86
2023/04/16 03:20:34;;;;;;;2.92;2.67;;;7.60;99.90;;;;;;5054453;28;20139;-86
2023/04/16 03:23:00;;;;;;;3.50;3.05;;;7.60;99.90;;;;;;5054902;28;20055;-87
2023/04/16 03:25:25;;;;;;;2.33;1.88;;;8.30;99.90;;;;;;5053879;28;20072;-86
2023/04/16 03:27:51;;;;;;;4.63;2.13;;;7.70;99.90;;;;;;5068305;28;20122;-87
2023/04/16 03:30:17;;;;;;;6.75;1.92;;;7.70;99.90;;;;;;5074290;28;20040;-86
2023/04/16 03:32:43;;;;;;;2.83;1.25;;;7.70;99.90;;;;;;5074497;28;20084;-86
2023/04/16 03:35:09;;;;;;;3.13;1.95;;;7.70;99.90;;;;;;5056691;28;20049;-86
2023/04/16 03:37:35;;;;;;;5.30;2.60;;;7.60;99.90;;;;;;5075541;28;20072;-86
2023/04/16 03:40:04;;;;;;;13.85;4.80;;;7.70;99.90;;;;;;5073958;28;20425;-85
2023/04/16 03:42:30;;;;;;;2.15;2.05;;;7.70;99.90;;;;;;5074529;28;20044;-85
2023/04/16 03:44:56;;;;;;;5.50;3.13;;;7.70;99.90;;;;;;5061975;28;20067;-86
2023/04/16 03:47:22;;;;;;;3.40;2.78;;;7.70;99.90;;;;;;5053539;28;20051;-86
2023/04/16 03:49:47;;;;;;;8.73;3.45;;;7.70;99.90;;;;;;5054105;28;20064;-85
2023/04/16 03:52:13;;;;;;;4.95;3.05;;;9.10;99.90;;;;;;5054706;28;20103;-87
2023/04/16 03:54:39;;;;;;;5.00;3.88;;;7.70;99.90;;;;;;5054851;28;20041;-86
2023/04/16 03:57:04;;;;;;;1.73;1.45;;;7.70;99.90;;;;;;5061708;28;20059;-86
2023/04/16 03:59:30;;;;;;;1.25;1.15;;;7.70;99.90;;;;;;5073516;28;20048;-86
2023/04/16 04:01:56;;;;;;;5.38;2.95;;;8.50;99.90;;;;;;5074672;28;20051;-87
2023/04/16 04:04:21;;;;;;;6.03;2.60;;;7.70;99.90;;;;;;5068925;28;20068;-86
2023/04/16 04:06:47;;;;;;;7.80;3.97;;;7.70;99.90;;;;;;5053454;28;20036;-87
2023/04/16 04:09:15;;;;;;;12.30;2.35;;;7.70;99.90;;;;;;5062962;28;20100;-86
2023/04/16 04:11:41;;;;;;;5.68;2.22;;;7.70;99.90;;;;;;5070691;28;20037;-87
2023/04/16 04:14:07;;;;;;;1.63;1.30;;;7.70;99.90;;;;;;5055599;28;20098;-86
2023/04/16 04:16:33;;;;;;;3.10;1.83;;;7.70;99.90;;;;;;5074485;28;20100;-86
2023/04/16 04:18:59;;;;;;;4.72;3.10;;;7.70;99.90;;;;;;5056276;28;20140;-85
2023/04/16 04:21:26;;;;;;;14.95;4.20;;;7.60;99.90;;;;;;5074248;28;20087;-86
2023/04/16 04:23:52;;;;;;;3.00;2.58;;;8.70;99.90;;;;;;5073350;28;20045;-86
2023/04/16 04:26:17;;;;;;;4.30;2.05;;;7.60;99.90;;;;;;5072448;28;20063;-86
2023/04/16 04:28:43;;;;;;;9.48;2.80;;;7.60;99.90;;;;;;5052144;28;20041;-85
2023/04/16 04:31:09;;;;;;;2.05;1.48;;;7.60;99.90;;;;;;5052799;28;20041;-86
2023/04/16 04:33:35;;;;;;;3.78;2.00;;;7.60;99.90;;;;;;5054453;28;20041;-86
2023/04/16 04:36:03;;;;;;;8.27;3.80;;;7.60;99.90;;;;;;5052474;28;20052;-86
2023/04/16 04:38:30;;;;;;;3.10;1.52;;;7.60;99.90;;;;;;5052802;28;20045;-86
2023/04/16 04:40:56;;;;;;;7.32;2.05;;;7.60;99.90;;;;;;5054898;28;20045;-85
2023/04/16 04:43:22;;;;;;;3.83;2.50;;;7.60;99.90;;;;;;5054794;28;20499;-85
2023/04/16 04:45:48;;;;;;;4.47;2.70;;;7.60;99.90;;;;;;5066801;28;20056;-85
2023/04/16 04:48:14;;;;;;;1.13;1.02;;;7.60;99.90;;;;;;5072608;28;20047;-87
2023/04/16 04:50:40;;;;;;;5.63;1.75;;;7.60;99.90;;;;;;5072804;28;20048;-86
2023/04/16 04:53:09;;;;;;;4.18;2.20;;;7.60;99.90;;;;;;5073724;28;20063;-86
2023/04/16 04:55:38;;;;;;;3.30;3.00;;;7.60;99.90;;;;;;5074056;28;20048;-87
2023/04/16 04:58:05;;;;;;;18.70;2.35;;;7.60;99.90;;;;;;5073635;28;20048;-86
2023/04/16 05:00:32;;;;;;;1.05;1.00;;;7.60;99.90;;;;;;5056638;28;20064;-86
2023/04/16 05:03:04;;;;;;;1.98;1.80;;;7.60;99.90;;;;;;5074441;28;20075;-86
2023/04/16 05:05:29;;;;;;;2.35;2.08;;;7.60;99.90;;;;;;5044580;28;20088;-86
2023/04/16 05:07:55;;;;;;;8.88;1.95;;;7.90;99.90;;;;;;5052140;28;20073;-86
2023/04/16 05:10:21;;;;;;;1.58;1.13;;;7.70;99.90;;;;;;5053564;28;20049;-86
2023/04/16 05:12:50;;;;;;;10.80;4.00;;;7.70;99.90;;;;;;5052695;28;20095;-86
2023/04/16 05:15:16;;;;;;;3.35;2.58;;;7.70;99.90;;;;;;5035362;28;20126;-86
2023/04/16 05:17:41;;;;;;;3.47;2.17;;;7.70;99.90;;;;;;5052956;28;20053;-85
2023/04/16 05:20:08;;;;;;;3.78;1.92;;;7.70;99.90;;;;;;5057800;28;20056;-86
2023/04/16 05:22:34;;;;;;;2.65;1.25;;;7.70;99.90;;;;;;5054101;28;20077;-86
2023/04/16 05:25:00;;;;;;;1.95;1.00;;;7.70;99.90;;;;;;5067580;28;20025;-86
2023/04/16 05:27:29;;;;;;;4.85;2.25;;;7.70;99.90;;;;;;5089592;28;20060;-86
2023/04/16 05:29:54;;;;;;;2.60;1.90;;;7.70;99.90;;;;;;5092270;28;20025;-85
2023/04/16 05:32:20;;;;;;;2.25;1.63;;;7.70;99.90;;;;;;5092720;28;20054;-86
2023/04/16 05:34:46;;;;;;;5.40;2.67;;;7.70;99.90;;;;;;5090034;28;20040;-86
2023/04/16 05:37:12;;;;;;;3.67;1.98;;;8.70;99.90;;;;;;5071229;28;20105;-86
2023/04/16 05:39:37;;;;;;;0.38;0.38;;;7.80;99.90;;;;;;5053703;28;20497;-85
2023/04/16 05:42:03;;;;;;;1.92;1.75;;;7.80;99.90;;;;;;5052229;28;20358;-85
2023/04/16 05:44:29;;;;;;;3.60;2.65;;;7.80;99.90;;;;;;5053910;28;20060;-85
2023/04/16 05:46:54;;;;;;;25.58;2.60;;;7.70;99.90;;;;;;5070524;28;20104;-86
2023/04/16 05:49:21;;;;;;;2.60;2.17;;;7.70;99.90;;;;;;5072383;28;20052;-86
2023/04/16 05:51:48;;;;;;;5.05;2.70;;;7.60;99.90;;;;;;5073705;28;20071;-86
2023/04/16 05:54:14;;;;;;;2.13;1.95;;;7.70;99.90;;;;;;5073896;28;20047;-86
2023/04/16 05:56:40;;;;;;;2.55;1.90;;;7.70;99.90;;;;;;5059770;28;20041;-87
2023/04/16 05:59:06;;;;;;;2.45;2.25;;;7.80;99.90;;;;;;5056871;28;20083;-85
2023/04/16 06:01:34;;;;;;;5.38;3.15;;;7.90;99.90;;;;;;5070699;28;20044;-85
2023/04/16 06:04:00;;;;;;;3.25;2.38;;;8.00;99.90;;;;;;5069312;28;20065;-85
2023/04/16 06:06:26;;;;;;;4.80;3.05;;;8.10;99.90;;;;;;5053153;28;20490;-86
2023/04/16 06:08:52;;;;;;;1.90;1.80;;;8.20;99.90;;;;;;5053348;28;20067;-85
2023/04/16 06:11:21;;;;;;;1.27;1.17;;;8.40;99.90;;;;;;5068645;28;20499;-87
2023/04/16 06:13:46;;;;;;;6.65;3.85;;;8.30;99.90;;;;;;5071534;28;20071;-86
2023/04/16 06:16:12;;;;;;;2.30;1.63;;;8.30;99.90;;;;;;5063114;28;20518;-86
2023/04/16 06:18:37;;;;;;;4.05;2.50;;;8.30;99.90;;;;;;5050924;28;20491;-86
2023/04/16 06:21:03;;;;;;;1.45;1.35;;;8.40;99.90;;;;;;5053345;28;20049;-86
2023/04/16 06:23:29;;;;;;;2.92;2.42;;;8.50;99.90;;;;;;5051256;28;20056;-86
2023/04/16 06:25:55;;;;;;;4.88;3.35;;;8.50;99.90;;;;;;5057702;28;20041;-85
2023/04/16 06:28:21;;;;;;;3.95;2.20;;;8.50;99.90;;;;;;5074765;28;20048;-86
2023/04/16 06:30:47;;;;;;;3.05;2.28;;;8.60;99.90;;;;;;5077033;28;20051;-86
2023/04/16 06:33:12;;;;;;;5.43;2.92;;;8.60;99.90;;;;;;5084508;28;20049;-85
2023/04/16 06:35:38;;;;;;;1.50;1.20;;;8.70;99.90;;;;;;5080467;28;20037;-85
2023/04/16 06:38:03;;;;;;;5.90;2.38;;;8.70;99.90;;;;;;5065349;28;20036;-86
2023/04/16 06:40:29;;;;;;;2.38;2.17;;;8.80;99.90;;;;;;5051357;28;20041;-86
2023/04/16 06:42:55;;;;;;;5.18;2.88;;;8.80;99.90;;;;;;5047607;28;20045;-85
2023/04/16 06:45:20;;;;;;;3.20;2.40;;;8.80;99.90;;;;;;5047244;28;20060;-86
2023/04/16 06:47:46;;;;;;;12.73;2.75;;;8.90;99.90;;;;;;5067171;28;20390;-86
2023/04/16 06:50:12;;;;;;;1.88;1.48;;;9.10;99.90;;;;;;5067925;28;20466;-86
2023/04/16 06:52:38;;;;;;;4.53;2.38;;;9.00;99.90;;;;;;5062875;28;20122;-86
2023/04/16 06:55:04;;;;;;;1.98;1.75;;;9.10;99.90;;;;;;5052148;28;20509;-86
2023/04/16 06:57:30;;;;;;;14.90;1.45;;;9.00;99.90;;;;;;5062182;28;20376;-86
2023/04/16 06:59:56;;;;;;;8.68;2.75;;;9.00;99.90;;;;;;5067271;28;20051;-86
2023/04/16 07:02:22;;;;;;;1.42;1.30;;;9.00;99.90;;;;;;5049563;28;20041;-86
2023/04/16 07:04:48;;;;;;;5.15;3.03;;;9.00;99.90;;;;;;5048109;28;20055;-86
2023/04/16 07:07:14;;;;;;;5.00;3.05;;;9.00;99.90;;;;;;5046296;28;20402;-85
2023/04/16 07:09:39;;;;;;;2.38;1.58;;;10.00;99.90;;;;;;5047332;28;20052;-85
2023/04/16 07:12:06;;;;;;;4.22;2.58;;;9.30;99.90;;;;;;5061623;28;20527;-85
2023/04/16 07:14:34;;;;;;;2.10;1.90;;;9.20;99.90;;;;;;5066698;28;20514;-85
2023/04/16 07:17:00;;;;;;;4.53;2.30;;;9.30;99.90;;;;;;5060899;28;20128;-86
2023/04/16 07:19:31;;;;;;;2.08;1.40;;;9.40;99.90;;;;;;5059855;28;20080;-86
2023/04/16 07:22:00;;;;;;;1.60;1.15;;;10.50;99.90;;;;;;5063547;28;20057;-86
2023/04/16 07:24:26;;;;;;;5.82;3.05;;;9.50;99.90;;;;;;5062798;28;20276;-86
2023/04/16 07:26:52;;;;;;;4.82;1.05;;;9.50;99.90;;;;;;5045061;28;20036;-86
2023/04/16 07:29:18;;;;;;;3.20;1.95;;;9.60;99.90;;;;;;5052601;28;20084;-85
2023/04/16 07:31:46;;;;;;;0.93;0.75;;;9.80;99.90;;;;;;5056905;28;20076;-85
2023/04/16 07:34:12;;;;;;;5.53;2.08;;;9.90;99.90;;;;;;5079234;28;20376;-86
2023/04/16 07:36:38;;;;;;;2.78;1.52;;;10.10;99.90;;;;;;5070119;28;20049;-86
2023/04/16 07:39:07;;;;;;;1.30;1.15;;;10.10;99.90;;;;;;5063298;28;20062;-86
2023/04/16 07:41:33;;;;;;;3.30;2.97;;;10.30;47.10;;;;;;5062012;28;20041;-86
2023/04/16 07:43:59;;;;;;;1.58;1.42;;;10.30;99.90;;;;;;5062961;28;20047;-86
2023/04/16 07:46:24;;;;;;;6.22;4.03;;;10.30;99.90;;;;;;5058789;28;20051;-86
2023/04/16 07:48:50;;;;;;;0.73;0.73;;;10.50;1.00;;;;;;5051022;28;20040;-86
2023/04/16 07:51:16;;;;;;;3.13;1.83;;;11.70;99.90;;;;;;5053297;28;20434;-85
2023/04/16 07:53:42;;;;;;;21.08;1.13;;;10.90;99.90;;;;;;5049891;28;20045;-85
2023/04/16 07:56:08;;;;;;;1.63;1.35;;;10.70;99.90;;;;;;5059728;28;20051;-85
2023/04/16 07:58:34;;;;;;;8.93;1.65;;;10.80;1.00;;;;;;5067188;28;20569;-86
2023/04/16 08:01:00;;;;;;;2.30;1.52;;;10.80;1.00;;;;;;5064148;28;20137;-86
2023/04/16 08:03:26;;;;;;;1.70;1.30;;;11.90;1.00;;;;;;5067635;28;20406;-86
2023/04/16 08:05:51;;;;;;;2.30;1.23;;;11.10;1.00;;;;;;5075665;28;20047;-85
2023/04/16 08:08:17;;;;;;;2.00;1.33;;;11.20;99.90;;;;;;5083678;28;20041;-85
2023/04/16 08:10:43;;;;;;;2.13;1.45;;;11.20;99.90;;;;;;5090789;28;20346;-86
2023/04/16 08:13:08;;;;;;;2.95;1.92;;;11.80;99.90;;;;;;5090616;28;20066;-86
2023/04/16 08:15:34;;;;;;;3.00;1.63;;;12.10;99.90;;;;;;5074736;28;20045;-86
2023/04/16 08:18:00;;;;;;;5.70;2.15;;;11.60;99.90;;;;;;5069712;28;20140;-85
2023/04/16 08:20:26;;;;;;;1.80;1.70;;;11.70;99.90;;;;;;5053285;28;20044;-85
2023/04/16 08:22:53;;;;;;;2.47;1.73;;;11.90;1.00;;;;;;5071094;28;20036;-86
2023/04/16 08:25:19;;;;;;;0.70;0.60;;;12.40;99.90;;;;;;5070834;28;20085;-85
2023/04/16 08:27:48;;;;;;;2.58;1.92;;;12.50;99.90;;;;;;5088319;28;20048;-86
2023/04/16 08:30:15;;;;;;;0.75;0.75;;;13.00;1.00;;;;;;5086879;28;20048;-86
2023/04/16 08:32:41;;;;;;;2.25;2.05;;;14.20;99.90;;;;;;5069885;28;20062;-85
2023/04/16 08:35:07;;;;;;;3.63;1.67;;;13.60;99.90;;;;;;5053641;28;20418;-86
2023/04/16 08:37:33;;;;;;;1.52;1.40;;;13.40;99.90;;;;;;5056864;28;20120;-86
2023/04/16 08:39:59;;;;;;;5.78;2.83;;;13.50;1.00;;;;;;5044698;28;20506;-86
2023/04/16 08:42:44;;;;;;;4.63;2.75;;;13.80;99.90;;;;;;5046103;28;20410;-86
2023/04/16 08:45:23;;;;;;;3.55;2.67;;;14.10;1.00;;;;;;5045486;28;20064;-86
2023/04/16 08:47:50;;;;;;;2.20;1.70;;;14.70;99.90;;;;;;5045690;28;20543;-86
2023/04/16 08:50:21;;;;;;;1.83;1.48;;;14.90;99.90;;;;;;5045942;28;20105;-87
2023/04/16 08:53:03;;;;;;;8.20;2.08;;;15.20;99.90;;;;;;5029185;28;20068;-84
2023/04/16 08:55:39;;;;;;;3.70;2.67;;;15.50;99.90;;;;;;5062359;28;20544;-84
2023/04/16 08:58:21;;;;;;;2.33;1.95;;;16.00;1.00;;;;;;5060823;28;20051;-85
2023/04/16 09:00:47;;;;;;;1.77;1.17;;;16.00;99.90;;;;;;5045520;28;20117;-85
2023/04/16 09:03:14;;;;;;;2.03;0.98;;;15.90;99.90;;;;;;5045536;28;20048;-86
2023/04/16 09:05:41;;;;;;;0.98;0.90;;;15.90;99.90;;;;;;5063075;28;20500;-85
2023/04/16 09:08:08;;;;;;;2.33;1.45;;;16.10;84.30;;;;;;5062962;28;20082;-85
2023/04/16 09:10:34;;;;;;;1.85;0.68;;;16.60;99.90;;;;;;5064875;28;20065;-85
2023/04/16 09:13:00;;;;;;;6.10;1.73;;;17.50;37.00;;;;;;5049457;28;20048;-87
2023/04/16 09:15:26;;;;;;;1.85;1.52;;;17.10;1.00;;;;;;5045274;28;20494;-86
2023/04/16 09:17:52;;;;;;;2.60;1.85;;;16.70;1.00;;;;;;5038878;28;20344;-86
2023/04/16 09:20:22;;;;;;;4.07;2.72;;;16.10;1.00;;;;;;5042025;28;20533;-85
2023/04/16 09:22:48;;;;;;;4.85;2.83;;;17.20;1.00;;;;;;5056044;28;20498;-86
2023/04/16 09:25:14;;;;;;;3.20;1.50;;;16.30;1.00;;;;;;5065977;28;20055;-86
2023/04/16 09:27:40;;;;;;;5.07;2.22;;;16.20;1.00;;;;;;5047222;28;20069;-87
2023/04/16 09:30:25;;;;;;;17.17;2.75;;;16.30;1.00;;;;;;5044355;28;20092;-86
2023/04/16 09:33:11;;;;;;;4.30;1.45;;;15.90;1.00;;;;;;5044354;28;20053;-86
2023/04/16 09:35:50;;;;;;;2.85;1.05;;;15.70;1.00;;;;;;5052191;28;20075;-87
2023/04/16 09:38:17;;;;;;;4.47;2.33;;;15.70;1.00;;;;;;5043243;28;20114;-86
2023/04/16 09:40:43;;;;;;;1.60;0.95;;;16.20;1.00;;;;;;5046241;28;20041;-87
2023/04/16 09:43:16;;;;;;;1.15;0.65;;;15.70;1.00;;;;;;5045185;28;20132;-87
2023/04/16 09:45:52;;;;;;;1.85;1.75;;;15.50;1.00;;;;;;5051479;28;20048;-88
2023/04/16 09:48:38;;;;;;;3.22;1.50;;;16.20;1.00;;;;;;5050592;28;20126;-87
2023/04/16 09:51:05;;;;;;;2.22;1.73;;;16.80;1.00;;;;;;5044794;28;20526;-87
2023/04/16 09:53:31;;;;;;;6.43;2.50;;;16.80;1.00;;;;;;5044206;28;20130;-87
2023/04/16 09:55:59;;;;;;;17.55;2.25;;;18.10;1.00;;;;;;5044412;28;20110;-85
2023/04/16 09:58:25;;;;;;;0.82;0.75;;;17.20;99.90;;;;;;5045811;28;20044;-87
2023/04/16 10:01:05;;;;;;;2.45;1.15;;;17.10;99.90;;;;;;5051177;28;20051;-87
2023/04/16 10:03:35;;;;;;;3.40;0.82;;;17.30;99.90;;;;;;5069067;28;20040;-85
2023/04/16 10:06:14;;;;;;;3.75;1.92;;;18.50;99.90;;;;;;5069025;28;20094;-87
2023/04/16 10:08:47;;;;;;;1.65;1.35;;;17.20;99.90;;;;;;5069062;28;20048;-86
2023/04/16 10:11:12;;;;;;;3.13;1.85;;;17.20;99.90;;;;;;5067435;28;20593;-87
2023/04/16 10:13:38;;;;;;;0.98;0.75;;;18.00;99.90;;;;;;5056318;28;20053;-86
2023/04/16 10:16:05;;;;;;;2.17;1.98;;;18.00;99.90;;;;;;5053122;28;20042;-87
2023/04/16 10:18:31;;;;;;;1.30;1.00;;;16.90;99.90;;;;;;5067059;28;20140;-86
2023/04/16 10:20:57;;;;;;;2.28;1.42;;;17.70;99.90;;;;;;5054892;28;20407;-87
2023/04/16 10:23:23;;;;;;;1.67;1.27;;;16.90;99.90;;;;;;5049399;28;20036;-86
2023/04/16 10:25:49;;;;;;;4.50;1.60;;;16.90;99.90;;;;;;5048263;28;20559;-86
2023/04/16 10:28:16;;;;;;;4.18;1.58;;;16.80;99.90;;;;;;5059892;28;20037;-87
2023/04/16 10:30:51;;;;;;;2.15;0.90;;;17.00;99.90;;;;;;5056020;28;20052;-86
2023/04/16 10:33:27;;;;;;;2.33;1.35;;;18.00;99.90;;;;;;5048764;28;20276;-86
2023/04/16 10:36:15;;;;;;;2.67;1.75;;;17.30;99.90;;;;;;5049012;28;20047;-86
2023/04/16 10:38:51;;;;;;;0.40;0.40;;;17.60;99.90;;;;;;5048095;28;20431;-86
2023/04/16 10:41:19;;;;;;;2.10;1.77;;;18.00;99.90;;;;;;5030267;28;20087;-86
2023/04/16 10:44:08;;;;;;;1.92;1.70;;;19.30;99.90;;;;;;5057922;28;20106;-86
2023/04/16 10:46:39;;;;;;;1.63;1.52;;;18.50;99.90;;;;;;5062001;28;20076;-86
2023/04/16 10:49:19;;;;;;;7.85;2.97;;;18.30;99.90;;;;;;5064361;28;20055;-87
2023/04/16 10:51:56;;;;;;;0.45;0.45;;;18.50;99.90;;;;;;5045757;28;20056;-85
2023/04/16 10:54:26;;;;;;;1.85;1.55;;;17.80;99.90;;;;;;5047628;28;20045;-86
2023/04/16 10:56:54;;;;;;;6.47;1.77;;;17.40;99.90;;;;;;5047835;28;20469;-87
2023/04/16 10:59:21;;;;;;;1.75;1.60;;;17.20;99.90;;;;;;5049245;28;20041;-87
2023/04/16 11:01:51;;;;;;;3.30;1.50;;;17.50;99.90;;;;;;5067898;28;20044;-86
2023/04/16 11:04:20;;;;;;;5.55;0.95;;;17.20;99.90;;;;;;5067314;28;20076;-86
2023/04/16 11:07:13;;;;;;;1.33;1.23;;;17.60;99.90;;;;;;5051371;28;20200;-82
2023/04/16 11:09:55;;;;;;;4.07;1.98;;;17.60;99.90;;;;;;5047207;28;20055;-84
2023/04/16 11:12:22;;;;;;;5.25;2.67;;;18.20;99.90;;;;;;5045107;28;20044;-83
2023/04/16 11:14:49;;;;;;;3.53;2.05;;;18.30;99.90;;;;;;5045768;28;20037;-83
2023/04/16 11:17:15;;;;;;;0.65;0.65;;;18.30;99.90;;;;;;5030213;28;20079;-84
2023/04/16 11:19:42;;;;;;;2.35;1.30;;;18.10;99.90;;;;;;5066087;28;20056;-83
2023/04/16 11:22:13;;;;;;;4.57;1.90;;;18.30;99.90;;;;;;5065562;28;20048;-85
2023/04/16 11:24:40;;;;;;;2.50;1.30;;;18.00;99.90;;;;;;5050411;28;20562;-84
2023/04/16 11:27:07;;;;;;;1.45;1.20;;;17.70;99.90;;;;;;5058226;28;20044;-83
2023/04/16 11:29:33;;;;;;;1.02;0.93;;;17.80;99.90;;;;;;5071135;28;20032;-83
2023/04/16 11:31:58;;;;;;;7.30;1.30;;;17.50;99.90;;;;;;5070036;28;20076;-85
2023/04/16 11:34:24;;;;;;;1.92;1.30;;;17.10;99.90;;;;;;5070428;28;20033;-83
2023/04/16 11:36:50;;;;;;;2.30;1.20;;;16.80;99.90;;;;;;5086509;28;20038;-84
2023/04/16 11:39:17;;;;;;;2.28;1.85;;;16.90;99.90;;;;;;5072846;28;20380;-84
2023/04/16 11:41:43;;;;;;;3.13;1.48;;;17.30;99.90;;;;;;5087337;28;20482;-85
2023/04/16 11:44:27;;;;;;;3.53;1.00;;;17.00;99.90;;;;;;5073934;28;20048;-84
2023/04/16 11:46:53;;;;;;;3.28;1.48;;;17.10;99.90;;;;;;5072219;28;20501;-84
2023/04/16 11:49:29;;;;;;;3.50;1.80;;;17.90;99.90;;;;;;5067083;28;20048;-83
2023/04/16 11:51:55;;;;;;;1.80;1.67;;;18.40;99.90;;;;;;5066022;28;20095;-84
2023/04/16 11:54:23;;;;;;;4.38;1.75;;;18.90;99.90;;;;;;5066971;28;20041;-83
2023/04/16 11:56:50;;;;;;;2.10;1.40;;;18.90;99.90;;;;;;5048804;28;20060;-84
2023/04/16 11:59:22;;;;;;;1.50;1.40;;;19.20;99.90;;;;;;5064514;28;20055;-83
2023/04/16 12:01:50;;;;;;;0.77;0.77;;;19.40;99.90;;;;;;5050433;28;20067;-84
2023/04/16 12:04:18;;;;;;;1.25;0.82;;;18.60;99.90;;;;;;5053633;28;20045;-83
2023/04/16 12:07:21;;;;;;;2.03;1.58;;;18.60;99.90;;;;;;5047048;28;20044;-83
2023/04/16 12:09:47;;;;;;;2.33;1.88;;;18.70;99.90;;;;;;5048277;28;20049;-84
2023/04/16 12:12:27;;;;;;;2.75;2.00;;;18.50;99.90;;;;;;5047728;28;20143;-83
2023/04/16 12:14:55;;;;;;;1.67;1.27;;;18.20;99.90;;;;;;5063135;28;20071;-83
2023/04/16 12:17:21;;;;;;;5.22;1.92;;;18.20;99.90;;;;;;5066181;28;20059;-83
2023/04/16 12:19:57;;;;;;;1.38;1.27;;;17.90;99.90;;;;;;5047860;28;20048;-83
2023/04/16 12:22:35;;;;;;;;;;;17.40;99.90;;;;;;5051017;28;20044;-84
2023/04/16 12:25:06;;;;;;;3.08;2.15;;;16.50;99.90;;;;;;5048611;28;19928;-84
2023/04/16 12:27:54;;;;;;;1.83;1.40;;;16.40;99.90;;;;;;5044579;28;20525;-82
2023/04/16 12:30:24;;;;;;;3.30;1.92;;;17.00;99.90;;;;;;5047047;28;20151;-84
2023/04/16 12:33:10;;;;;;;1.02;0.85;;;16.80;99.90;;;;;;5029516;28;20053;-83
2023/04/16 12:35:36;;;;;;;2.30;1.40;;;16.90;99.90;;;;;;5046103;28;20299;-83
2023/04/16 12:38:02;;;;;;;1.40;1.23;;;17.20;99.90;;;;;;5045994;28;20048;-84
2023/04/16 12:40:28;;;;;;;4.90;1.98;;;17.70;99.90;;;;;;5047687;28;20040;-83
2023/04/16 12:42:54;;;;;;;6.85;2.17;;;18.10;99.90;;;;;;5056741;28;20051;-82
2023/04/16 12:45:20;;;;;;;3.92;1.92;;;18.50;99.90;;;;;;5048878;28;20124;-83
2023/04/16 12:47:46;;;;;;;2.97;2.03;;;18.60;99.90;;;;;;5048095;28;20147;-83
2023/04/16 12:50:12;;;;;;;1.67;0.77;;;18.70;99.90;;;;;;5065669;28;20044;-83
2023/04/16 12:52:38;;;;;;;8.43;1.70;;;18.50;99.90;;;;;;5072543;28;20078;-83
2023/04/16 12:55:04;;;;;;;3.42;2.40;;;18.60;99.90;;;;;;5062795;28;20483;-83